Time;durP1;ratioP1;P1;durP2;ratioP2;P2;SDS_P1;SDS_P2;PMS_P1;PMS_P2;Temp;Humidity;BMP_temperature;BMP_pressure;BME280_temperature;BME280_humidity;BME280_pressure;Samples;Min_cycle;Max_cycle;Signal;HPM_P1;HPM_P2
2022/08/09 00:01:48;;;;;;;5.93;2.60;;;15.60;99.90;;;;;;5012351;28;20190;-63
2022/08/09 00:04:15;;;;;;;5.32;2.88;;;15.70;99.90;;;;;;5012726;28;20491;-62
2022/08/09 00:06:43;;;;;;;4.75;2.50;;;15.80;99.90;;;;;;5010771;28;20212;-62
2022/08/09 00:09:10;;;;;;;6.47;2.67;;;15.70;99.90;;;;;;5009949;28;20588;-62
2022/08/09 00:11:37;;;;;;;3.78;2.40;;;15.60;99.90;;;;;;4989795;28;20221;-62
2022/08/09 00:14:04;;;;;;;3.03;2.63;;;15.60;99.90;;;;;;5004448;28;20700;-62
2022/08/09 00:16:31;;;;;;;5.63;2.50;;;15.60;99.90;;;;;;5009941;28;20197;-62
2022/08/09 00:18:59;;;;;;;8.32;2.80;;;15.30;99.90;;;;;;5010224;28;20256;-62
2022/08/09 00:21:26;;;;;;;3.15;2.42;;;15.40;99.90;;;;;;5014073;28;20935;-62
2022/08/09 00:23:54;;;;;;;2.72;2.45;;;15.40;99.90;;;;;;5003787;28;20218;-62
2022/08/09 00:26:21;;;;;;;6.82;2.63;;;15.40;99.90;;;;;;4992581;28;20205;-62
2022/08/09 00:28:48;;;;;;;5.40;2.70;;;15.40;99.90;;;;;;5002499;28;20220;-62
2022/08/09 00:31:15;;;;;;;6.63;2.90;;;15.50;99.90;;;;;;5010335;28;20229;-62
2022/08/09 00:33:42;;;;;;;4.13;2.78;;;15.30;99.90;;;;;;5011247;28;20362;-62
2022/08/09 00:36:10;;;;;;;2.83;2.22;;;15.30;99.90;;;;;;5010056;28;20201;-62
2022/08/09 00:38:38;;;;;;;4.95;2.50;;;15.20;99.90;;;;;;5018113;28;20200;-62
2022/08/09 00:41:05;;;;;;;2.95;2.35;;;15.20;99.90;;;;;;5007805;28;20196;-62
2022/08/09 00:43:33;;;;;;;3.03;2.25;;;15.20;99.90;;;;;;4985635;28;20311;-62
2022/08/09 00:46:00;;;;;;;5.15;2.50;;;15.10;99.90;;;;;;5008401;28;20860;-62
2022/08/09 00:48:27;;;;;;;3.38;2.35;;;15.20;99.90;;;;;;5012409;28;20200;-62
2022/08/09 00:50:54;;;;;;;2.97;2.47;;;15.20;99.90;;;;;;5008215;28;20750;-62
2022/08/09 00:53:22;;;;;;;6.50;2.17;;;15.20;99.90;;;;;;5010166;28;20725;-61
2022/08/09 00:55:49;;;;;;;2.70;2.22;;;15.20;99.90;;;;;;5009925;28;20204;-62
2022/08/09 00:58:16;;;;;;;2.85;2.10;;;15.00;99.90;;;;;;4985719;28;20214;-62
2022/08/09 01:00:43;;;;;;;3.47;2.70;;;14.90;99.90;;;;;;5011442;28;20213;-62
2022/08/09 01:03:16;;;;;;;4.80;2.17;;;14.90;99.90;;;;;;5010605;28;20800;-62
2022/08/09 01:05:52;;;;;;;4.18;2.35;;;14.90;99.90;;;;;;5011799;28;20205;-62
2022/08/09 01:08:27;;;;;;;3.22;2.25;;;15.00;99.90;;;;;;5009645;28;20200;-62
2022/08/09 01:11:07;;;;;;;5.53;2.53;;;14.90;99.90;;;;;;5008391;28;21030;-62
2022/08/09 01:13:45;;;;;;;4.60;2.38;;;15.00;99.90;;;;;;4993691;28;20655;-62
2022/08/09 01:16:13;;;;;;;3.70;2.45;;;14.90;99.90;;;;;;5004543;28;20198;-62
2022/08/09 01:18:45;;;;;;;3.25;2.40;;;14.80;99.90;;;;;;5006698;28;20230;-62
2022/08/09 01:21:20;;;;;;;7.97;2.72;;;14.80;99.90;;;;;;5010062;28;20202;-62
2022/08/09 01:23:57;;;;;;;5.00;2.70;;;14.80;99.90;;;;;;5006261;28;20616;-62
2022/08/09 01:26:44;;;;;;;5.68;2.70;;;14.70;99.90;;;;;;5016263;28;20212;-62
2022/08/09 01:29:13;;;;;;;6.63;2.60;;;16.50;99.90;;;;;;4993141;28;20569;-63
2022/08/09 01:31:43;;;;;;;4.65;2.50;;;14.80;99.90;;;;;;5013624;28;20204;-61
2022/08/09 01:34:15;;;;;;;6.65;2.63;;;14.70;99.90;;;;;;5010394;28;20194;-62
2022/08/09 01:36:43;;;;;;;3.63;2.70;;;14.80;99.90;;;;;;5014415;28;20660;-61
2022/08/09 01:39:12;;;;;;;4.32;2.40;;;14.80;99.90;;;;;;5013273;28;20529;-62
2022/08/09 01:41:41;;;;;;;2.47;2.28;;;14.80;99.90;;;;;;5014588;28;20217;-62
2022/08/09 01:44:10;;;;;;;3.80;2.38;;;14.90;99.90;;;;;;4991764;28;21551;-63
2022/08/09 01:46:39;;;;;;;3.15;2.42;;;15.00;99.90;;;;;;5014672;28;20229;-62
2022/08/09 01:49:09;;;;;;;5.80;2.28;;;14.80;99.90;;;;;;5012174;28;20691;-62
2022/08/09 01:51:39;;;;;;;4.22;2.47;;;14.70;99.90;;;;;;5015520;28;20198;-62
2022/08/09 01:54:07;;;;;;;2.55;2.35;;;14.70;99.90;;;;;;5005674;28;20194;-62
2022/08/09 01:56:36;;;;;;;3.47;2.05;;;14.70;99.90;;;;;;5017195;28;20789;-62
2022/08/09 01:59:09;;;;;;;2.97;2.50;;;14.70;99.90;;;;;;5001969;28;20597;-62
2022/08/09 02:01:37;;;;;;;2.47;2.28;;;14.40;99.90;;;;;;5000419;28;20209;-62
2022/08/09 02:04:06;;;;;;;3.75;2.63;;;14.70;99.90;;;;;;5010232;28;20619;-62
2022/08/09 02:09:20;;;;;;;3.97;2.50;;;14.80;99.90;;;;;;5011959;28;20205;-62
2022/08/09 02:11:47;;;;;;;2.67;2.28;;;14.70;99.90;;;;;;5014938;28;20204;-62
2022/08/09 02:14:17;;;;;;;4.28;2.50;;;14.80;99.90;;;;;;5013756;28;20298;-62
2022/08/09 02:16:47;;;;;;;3.22;2.45;;;14.70;99.90;;;;;;4996992;28;20237;-62
2022/08/09 02:19:14;;;;;;;3.45;2.50;;;14.60;99.90;;;;;;5013758;28;20190;-62
2022/08/09 02:21:45;;;;;;;5.68;3.60;;;14.60;99.90;;;;;;5013920;28;20197;-62
2022/08/09 02:24:16;;;;;;;3.00;2.70;;;14.60;99.90;;;;;;5003791;28;20903;-62
2022/08/09 02:26:45;;;;;;;3.40;2.65;;;14.60;99.90;;;;;;5011819;28;20663;-62
2022/08/09 02:29:18;;;;;;;3.63;2.50;;;14.40;99.90;;;;;;5012165;28;20418;-62
2022/08/09 02:31:47;;;;;;;2.63;2.30;;;14.60;99.90;;;;;;4990540;28;20581;-62
2022/08/09 02:34:17;;;;;;;2.50;2.30;;;14.40;99.90;;;;;;5011691;28;20431;-62
2022/08/09 02:36:49;;;;;;;3.05;2.40;;;14.40;99.90;;;;;;5014494;28;20679;-62
2022/08/09 02:39:20;;;;;;;2.33;2.13;;;14.20;99.90;;;;;;5010635;28;20750;-62
2022/08/09 02:41:52;;;;;;;4.13;2.13;;;13.90;99.90;;;;;;5010942;28;20194;-62
2022/08/09 02:44:24;;;;;;;1.70;1.60;;;13.60;99.90;;;;;;5013340;28;20267;-63
2022/08/09 02:46:53;;;;;;;2.40;2.20;;;13.60;99.90;;;;;;4999096;28;20218;-62
2022/08/09 02:49:20;;;;;;;2.38;2.10;;;13.40;99.90;;;;;;5010639;28;20222;-62
2022/08/09 02:51:53;;;;;;;2.08;1.70;;;13.50;99.90;;;;;;5012601;28;20194;-62
2022/08/09 02:54:21;;;;;;;2.65;1.88;;;13.50;99.90;;;;;;5013213;28;20684;-62
2022/08/09 02:56:50;;;;;;;2.38;2.05;;;13.30;99.90;;;;;;5005314;28;20199;-62
2022/08/09 02:59:22;;;;;;;2.75;1.85;;;13.40;99.90;;;;;;5009726;28;20521;-61
2022/08/09 03:01:51;;;;;;;2.20;1.98;;;13.30;99.90;;;;;;5011590;28;20198;-61
2022/08/09 03:04:19;;;;;;;2.95;1.95;;;13.30;99.90;;;;;;4994768;28;20431;-62
2022/08/09 03:06:47;;;;;;;3.92;1.98;;;13.40;99.90;;;;;;5012450;28;20198;-62
2022/08/09 03:09:14;;;;;;;2.35;1.63;;;13.30;99.90;;;;;;5013557;28;20198;-62
2022/08/09 03:11:43;;;;;;;5.43;1.80;;;13.30;99.90;;;;;;5013359;28;20202;-61
2022/08/09 03:14:11;;;;;;;2.47;1.23;;;13.30;99.90;;;;;;5005631;28;20447;-62
2022/08/09 03:16:40;;;;;;;3.17;1.38;;;13.30;99.90;;;;;;5011332;28;20692;-62
2022/08/09 03:19:08;;;;;;;2.10;1.55;;;13.30;99.90;;;;;;4989452;28;20910;-62
2022/08/09 03:21:36;;;;;;;2.63;1.52;;;13.20;99.90;;;;;;5013142;28;20209;-62
2022/08/09 03:24:03;;;;;;;2.90;1.50;;;13.10;99.90;;;;;;5003937;28;20222;-62
2022/08/09 03:26:33;;;;;;;6.60;2.35;;;13.30;99.90;;;;;;5013504;28;20606;-62
2022/08/09 03:29:01;;;;;;;2.58;1.60;;;13.40;99.90;;;;;;5000888;28;20198;-62
2022/08/09 03:31:29;;;;;;;2.92;1.58;;;13.50;99.90;;;;;;5013536;28;20228;-62
2022/08/09 03:34:00;;;;;;;3.80;1.58;;;13.40;99.90;;;;;;4992200;28;20210;-62
2022/08/09 03:36:26;;;;;;;5.22;1.77;;;13.40;99.90;;;;;;5009891;28;20260;-62
2022/08/09 03:38:53;;;;;;;5.95;2.83;;;13.40;99.90;;;;;;5010298;28;20198;-62
2022/08/09 03:41:20;;;;;;;4.88;1.40;;;13.40;99.90;;;;;;5013783;28;20206;-62
2022/08/09 03:43:48;;;;;;;2.25;1.48;;;13.30;99.90;;;;;;5011160;28;20589;-62
2022/08/09 03:46:14;;;;;;;4.20;1.67;;;13.20;99.90;;;;;;5007385;28;20525;-61
2022/08/09 03:48:42;;;;;;;5.00;2.10;;;13.20;99.90;;;;;;4994076;28;20214;-62
2022/08/09 03:51:13;;;;;;;4.18;2.03;;;13.20;99.90;;;;;;5009849;28;20206;-63
2022/08/09 03:53:40;;;;;;;4.70;1.67;;;13.30;99.90;;;;;;5010769;28;20200;-62
2022/08/09 03:56:08;;;;;;;5.20;1.85;;;13.30;99.90;;;;;;5009280;28;20431;-61
2022/08/09 03:58:35;;;;;;;5.68;1.70;;;13.30;99.90;;;;;;5012399;28;20194;-62
2022/08/09 04:01:02;;;;;;;5.68;1.80;;;13.40;99.90;;;;;;5000383;28;20304;-62
2022/08/09 04:03:30;;;;;;;6.18;2.40;;;13.40;99.90;;;;;;5014763;28;20242;-62
2022/08/09 04:05:57;;;;;;;3.42;1.50;;;13.50;99.90;;;;;;4992098;28;20544;-62
2022/08/09 04:08:25;;;;;;;4.60;1.42;;;13.40;99.90;;;;;;5013471;28;20667;-62
2022/08/09 04:10:52;;;;;;;2.20;1.58;;;13.30;99.90;;;;;;5009398;28;20213;-62
2022/08/09 04:13:19;;;;;;;2.88;1.20;;;13.40;99.90;;;;;;5011697;28;20212;-61
2022/08/09 04:15:46;;;;;;;3.50;1.58;;;13.50;99.90;;;;;;5011602;28;20583;-62
2022/08/09 04:18:13;;;;;;;1.23;1.00;;;13.40;99.90;;;;;;5010830;28;20506;-62
2022/08/09 04:20:40;;;;;;;2.53;1.42;;;13.40;99.90;;;;;;4994807;28;20211;-61
2022/08/09 04:23:07;;;;;;;1.33;1.10;;;13.40;99.90;;;;;;5004359;28;20202;-62
2022/08/09 04:25:36;;;;;;;2.58;1.50;;;13.40;99.90;;;;;;5014381;28;20674;-61
2022/08/09 04:28:02;;;;;;;1.73;1.40;;;13.80;99.90;;;;;;5009165;28;20228;-62
2022/08/09 04:30:30;;;;;;;1.52;1.27;;;13.60;99.90;;;;;;5012980;28;20209;-62
2022/08/09 04:32:58;;;;;;;2.00;1.67;;;13.70;99.90;;;;;;5009082;28;20198;-62
2022/08/09 04:35:25;;;;;;;2.38;1.58;;;13.70;99.90;;;;;;4993958;28;20217;-62
2022/08/09 04:37:52;;;;;;;1.50;1.38;;;13.70;99.90;;;;;;5009026;28;20205;-62
2022/08/09 04:40:19;;;;;;;1.50;1.25;;;13.40;99.90;;;;;;5012618;28;20621;-62
2022/08/09 04:42:47;;;;;;;1.33;1.23;;;13.60;99.90;;;;;;5010762;28;20230;-62
2022/08/09 04:45:15;;;;;;;2.92;0.93;;;13.60;99.90;;;;;;5012020;28;20226;-62
2022/08/09 04:47:42;;;;;;;5.70;1.30;;;13.50;99.90;;;;;;5011643;28;20623;-62
2022/08/09 04:50:09;;;;;;;6.32;1.20;;;13.40;99.90;;;;;;4990558;28;20700;-62
2022/08/09 04:52:36;;;;;;;3.03;1.10;;;13.40;99.90;;;;;;5010440;28;20194;-62
2022/08/09 04:55:05;;;;;;;1.48;1.13;;;13.40;99.90;;;;;;5008110;28;20695;-62
2022/08/09 04:57:32;;;;;;;1.48;1.10;;;13.40;99.90;;;;;;5012512;28;20554;-62
2022/08/09 05:00:00;;;;;;;1.90;1.50;;;13.40;99.90;;;;;;5010591;28;20433;-62
2022/08/09 05:02:26;;;;;;;1.60;1.45;;;13.40;99.90;;;;;;5017183;28;20587;-61
2022/08/09 05:04:53;;;;;;;1.75;1.35;;;13.50;99.90;;;;;;5014291;28;20230;-62
2022/08/09 05:07:20;;;;;;;2.63;1.88;;;13.50;99.90;;;;;;4996635;28;20209;-62
2022/08/09 05:09:47;;;;;;;8.77;1.90;;;13.50;99.90;;;;;;5015889;28;20206;-62
2022/08/09 05:12:14;;;;;;;1.40;1.30;;;13.60;99.90;;;;;;5011153;28;20505;-61
2022/08/09 05:14:41;;;;;;;5.25;2.03;;;13.60;99.90;;;;;;5015984;28;20218;-62
2022/08/09 05:17:09;;;;;;;1.80;1.60;;;13.70;99.90;;;;;;5008604;28;20711;-62
2022/08/09 05:19:36;;;;;;;5.88;2.03;;;13.80;99.90;;;;;;5015857;28;20205;-62
2022/08/09 05:22:03;;;;;;;39.70;3.88;;;13.70;99.90;;;;;;4990871;28;20862;-62
2022/08/09 05:24:30;;;;;;;23.88;3.22;;;14.00;99.90;;;;;;5015338;28;20280;-62
2022/08/09 05:26:57;;;;;;;5.00;2.80;;;14.10;99.90;;;;;;5006170;28;20206;-62
2022/08/09 05:29:23;;;;;;;20.75;3.28;;;13.30;99.90;;;;;;5013108;28;20205;-61
2022/08/09 05:31:51;;;;;;;14.80;3.33;;;14.20;99.90;;;;;;5009045;28;20216;-62
2022/08/09 05:34:19;;;;;;;8.30;2.60;;;14.40;99.90;;;;;;5011717;28;20545;-62
2022/08/09 05:36:46;;;;;;;4.40;2.55;;;14.50;99.90;;;;;;5006384;28;20747;-62
2022/08/09 05:39:13;;;;;;;4.47;3.28;;;14.70;99.90;;;;;;5004654;28;20459;-62
2022/08/09 05:41:40;;;;;;;3.33;2.58;;;14.70;99.90;;;;;;5014027;28;20206;-62
2022/08/09 05:44:07;;;;;;;2.97;2.47;;;15.10;99.90;;;;;;5004085;28;20230;-62
2022/08/09 05:46:34;;;;;;;4.38;2.47;;;14.90;99.90;;;;;;5015416;28;20225;-62
2022/08/09 05:49:01;;;;;;;8.85;2.80;;;15.00;99.90;;;;;;5011538;28;20501;-62
2022/08/09 05:51:29;;;;;;;4.50;2.78;;;15.00;99.90;;;;;;5013660;28;20426;-62
2022/08/09 05:53:56;;;;;;;4.55;3.00;;;15.10;99.90;;;;;;4992496;28;20221;-62
2022/08/09 05:56:22;;;;;;;2.88;2.53;;;15.20;99.90;;;;;;5016259;28;20212;-62
2022/08/09 05:58:50;;;;;;;5.35;2.97;;;15.40;99.90;;;;;;5013814;28;20244;-62
2022/08/09 06:01:16;;;;;;;4.95;3.10;;;15.40;99.90;;;;;;5018457;28;20580;-62
2022/08/09 06:03:43;;;;;;;3.97;2.78;;;15.40;99.90;;;;;;5013377;28;20320;-62
2022/08/09 06:06:10;;;;;;;4.45;3.33;;;15.50;99.90;;;;;;5012464;28;20848;-62
2022/08/09 06:08:38;;;;;;;3.63;3.05;;;15.80;99.90;;;;;;4993141;28;20206;-62
2022/08/09 06:11:05;;;;;;;4.28;3.40;;;15.70;99.90;;;;;;5010587;28;20195;-62
2022/08/09 06:13:32;;;;;;;3.45;3.10;;;16.00;99.90;;;;;;5015683;28;20200;-62
2022/08/09 06:15:59;;;;;;;5.22;3.08;;;16.00;99.90;;;;;;5012744;28;20202;-62
2022/08/09 06:18:25;;;;;;;5.75;3.83;;;16.00;99.90;;;;;;5015864;28;20265;-62
2022/08/09 06:20:54;;;;;;;5.00;3.22;;;16.10;99.90;;;;;;5009302;28;20198;-62
2022/08/09 06:23:20;;;;;;;4.70;3.00;;;16.30;99.90;;;;;;4994509;28;20211;-63
2022/08/09 06:25:49;;;;;;;5.38;3.40;;;16.30;99.90;;;;;;5014342;28;20228;-62
2022/08/09 06:28:16;;;;;;;3.10;2.58;;;16.30;99.90;;;;;;5005846;28;20907;-62
2022/08/09 06:30:43;;;;;;;4.10;3.30;;;16.30;99.90;;;;;;5014704;28;20205;-62
2022/08/09 06:33:09;;;;;;;3.53;3.00;;;16.50;99.90;;;;;;5013349;28;20221;-62
2022/08/09 06:35:36;;;;;;;5.85;2.90;;;16.50;99.90;;;;;;5017106;28;20377;-62
2022/08/09 06:38:03;;;;;;;3.90;2.70;;;16.50;99.90;;;;;;5009577;28;20482;-63
2022/08/09 06:40:30;;;;;;;3.63;2.65;;;16.60;99.90;;;;;;4993655;28;20212;-62
2022/08/09 06:42:59;;;;;;;5.80;3.30;;;16.60;99.90;;;;;;5012225;28;20222;-63
2022/08/09 06:45:27;;;;;;;3.72;2.78;;;16.70;99.90;;;;;;5014461;28;20596;-62
2022/08/09 06:47:54;;;;;;;4.45;3.20;;;16.70;99.90;;;;;;5012147;28;20194;-62
2022/08/09 06:50:21;;;;;;;3.22;2.85;;;16.50;99.90;;;;;;5015076;28;20218;-62
2022/08/09 06:52:47;;;;;;;3.35;2.75;;;16.70;99.90;;;;;;5009833;28;20210;-62
2022/08/09 06:55:15;;;;;;;7.25;2.78;;;;;;;;;;4995585;28;20221;-63
2022/08/09 06:57:42;;;;;;;4.10;3.00;;;16.80;99.90;;;;;;5003552;28;20628;-62
2022/08/09 07:00:12;;;;;;;3.67;2.83;;;16.80;99.90;;;;;;5010023;28;20661;-63
2022/08/09 07:02:38;;;;;;;5.60;2.78;;;16.80;99.90;;;;;;5015248;28;20233;-63
2022/08/09 07:05:06;;;;;;;5.57;2.60;;;16.80;99.90;;;;;;5009338;28;20252;-62
2022/08/09 07:07:33;;;;;;;3.47;2.70;;;16.80;99.90;;;;;;5014589;28;20202;-63
2022/08/09 07:10:00;;;;;;;3.13;2.10;;;;;;;;;;5010022;28;20449;-62
2022/08/09 07:12:27;;;;;;;4.80;2.50;;;17.10;99.90;;;;;;4994113;28;20206;-62
2022/08/09 07:14:54;;;;;;;4.25;2.30;;;17.00;99.90;;;;;;5011600;28;20572;-62
2022/08/09 07:17:22;;;;;;;4.70;2.20;;;17.10;99.90;;;;;;5012019;28;20226;-62
2022/08/09 07:19:49;;;;;;;7.15;2.40;;;17.10;99.90;;;;;;5012307;28;20202;-62
2022/08/09 07:22:16;;;;;;;3.65;2.03;;;17.00;99.90;;;;;;5008463;28;20492;-62
2022/08/09 07:24:43;;;;;;;2.92;1.95;;;17.10;99.90;;;;;;5013740;28;20253;-63
2022/08/09 07:27:11;;;;;;;4.32;2.05;;;16.60;99.90;;;;;;4992231;28;20241;-63
2022/08/09 07:29:38;;;;;;;4.85;2.00;;;17.10;99.90;;;;;;5014559;28;20205;-62
2022/08/09 07:32:06;;;;;;;2.33;1.70;;;17.10;99.90;;;;;;5010209;28;20406;-62
2022/08/09 07:34:34;;;;;;;2.35;1.80;;;17.30;99.90;;;;;;5011943;28;20293;-62
2022/08/09 07:37:01;;;;;;;2.97;2.00;;;17.30;99.90;;;;;;5006511;28;20327;-62
2022/08/09 07:39:28;;;;;;;3.17;2.00;;;17.30;99.90;;;;;;5015328;28;20222;-63
2022/08/09 07:41:55;;;;;;;2.05;1.77;;;17.40;99.90;;;;;;4997103;28;20202;-63
2022/08/09 07:44:22;;;;;;;3.08;2.17;;;17.40;99.90;;;;;;5012969;28;20702;-62
2022/08/09 07:46:49;;;;;;;2.22;1.95;;;17.40;99.90;;;;;;5012734;28;20220;-62
2022/08/09 07:49:16;;;;;;;2.72;1.80;;;17.30;99.90;;;;;;5013207;28;20295;-62
2022/08/09 07:51:44;;;;;;;2.88;2.10;;;17.30;99.90;;;;;;5010584;28;20297;-62
2022/08/09 07:54:10;;;;;;;2.28;2.08;;;17.40;99.90;;;;;;5003684;28;20407;-63
2022/08/09 07:56:38;;;;;;;3.92;1.83;;;17.60;99.90;;;;;;5014792;28;20308;-62
2022/08/09 07:59:06;;;;;;;3.17;1.95;;;17.50;99.90;;;;;;4990066;28;20206;-62
2022/08/09 08:01:34;;;;;;;5.15;1.73;;;17.60;99.90;;;;;;5013337;28;20631;-62
2022/08/09 08:04:01;;;;;;;2.00;1.83;;;17.70;99.90;;;;;;5006886;28;20354;-63
2022/08/09 08:06:28;;;;;;;1.73;1.63;;;17.50;99.90;;;;;;5013786;28;20236;-62
2022/08/09 08:08:56;;;;;;;1.88;1.67;;;17.70;99.90;;;;;;5010812;28;20739;-63
2022/08/09 08:11:23;;;;;;;1.60;1.35;;;17.70;99.90;;;;;;5013316;28;20194;-62
2022/08/09 08:13:50;;;;;;;3.50;1.98;;;18.00;99.90;;;;;;5000535;28;20212;-62
2022/08/09 08:16:16;;;;;;;1.75;1.45;;;17.80;99.90;;;;;;5005556;28;20206;-62
2022/08/09 08:18:43;;;;;;;2.28;1.60;;;17.80;99.90;;;;;;5013008;28;20707;-62
2022/08/09 08:21:10;;;;;;;1.98;1.73;;;17.80;99.90;;;;;;5007340;28;20392;-62
2022/08/09 08:23:37;;;;;;;1.50;1.40;;;18.10;99.90;;;;;;5009359;28;20198;-62
2022/08/09 08:26:05;;;;;;;1.92;1.75;;;17.90;99.90;;;;;;5008553;28;20227;-62
2022/08/09 08:28:32;;;;;;;4.90;1.50;;;17.80;99.90;;;;;;5005433;28;20304;-63
2022/08/09 08:30:59;;;;;;;2.33;1.75;;;20.50;99.90;;;;;;4990756;28;20808;-63
2022/08/09 08:33:26;;;;;;;2.45;1.50;;;18.10;99.90;;;;;;5011725;28;20194;-63
2022/08/09 08:35:53;;;;;;;1.45;1.35;;;18.20;99.90;;;;;;5009705;28;20190;-62
2022/08/09 08:38:20;;;;;;;1.77;1.50;;;18.20;99.90;;;;;;5009236;28;20221;-62
2022/08/09 08:40:47;;;;;;;2.10;1.70;;;18.30;99.90;;;;;;5009827;28;20208;-62
2022/08/09 08:43:15;;;;;;;5.28;2.05;;;18.40;99.90;;;;;;5012420;28;20226;-62
2022/08/09 08:45:49;;;;;;;6.18;1.50;;;18.40;99.90;;;;;;4989634;28;20244;-62
2022/08/09 08:48:17;;;;;;;1.30;1.15;;;18.40;99.90;;;;;;5014040;28;20212;-62
2022/08/09 08:50:45;;;;;;;9.07;1.70;;;18.40;99.90;;;;;;5014869;28;20210;-62
2022/08/09 08:53:13;;;;;;;1.40;1.27;;;18.40;99.90;;;;;;5010497;28;20298;-63
2022/08/09 08:55:41;;;;;;;3.30;1.60;;;18.40;99.90;;;;;;5012276;28;20744;-62
2022/08/09 08:58:09;;;;;;;1.80;1.55;;;18.60;99.90;;;;;;5008344;28;20430;-63
2022/08/09 09:00:37;;;;;;;2.65;1.27;;;18.60;99.90;;;;;;5012141;28;20225;-62
2022/08/09 09:03:05;;;;;;;3.60;1.25;;;18.60;99.90;;;;;;4991013;28;20225;-62
2022/08/09 09:05:33;;;;;;;4.93;1.58;;;18.70;99.90;;;;;;5013674;28;20588;-63
2022/08/09 09:08:02;;;;;;;2.65;1.60;;;18.70;99.90;;;;;;5010898;28;20194;-62
2022/08/09 09:10:30;;;;;;;4.10;1.30;;;18.70;99.90;;;;;;4998444;28;20584;-62
2022/08/09 09:12:57;;;;;;;1.85;1.35;;;18.70;99.90;;;;;;5009670;28;20225;-62
2022/08/09 09:15:24;;;;;;;3.20;1.55;;;18.70;99.90;;;;;;5006353;28;20213;-62
2022/08/09 09:17:53;;;;;;;1.58;1.38;;;18.70;99.90;;;;;;4991708;28;20741;-63
2022/08/09 09:20:20;;;;;;;5.35;1.60;;;18.70;99.90;;;;;;5013412;28;20252;-62
2022/08/09 09:22:52;;;;;;;1.77;1.20;;;18.80;99.90;;;;;;5009550;28;20229;-62
2022/08/09 09:25:33;;;;;;;1.63;1.52;;;18.90;99.90;;;;;;5013523;28;20229;-62
2022/08/09 09:28:01;;;;;;;5.18;1.55;;;19.20;99.90;;;;;;5009904;28;20361;-62
2022/08/09 09:30:29;;;;;;;3.85;1.48;;;19.00;99.90;;;;;;5013833;28;20194;-62
2022/08/09 09:33:05;;;;;;;3.22;1.40;;;19.20;99.90;;;;;;4988461;28;20210;-62
2022/08/09 09:35:32;;;;;;;9.38;1.98;;;19.30;99.90;;;;;;5010196;28;20198;-62
2022/08/09 09:37:59;;;;;;;51.38;6.93;;;19.20;99.90;;;;;;5004803;28;20584;-62
2022/08/09 09:40:43;;;;;;;2.13;1.58;;;19.50;99.90;;;;;;5008632;28;20198;-62
2022/08/09 09:43:10;;;;;;;19.58;1.67;;;19.50;99.90;;;;;;5009685;28;20511;-62
2022/08/09 09:45:55;;;;;;;17.58;3.00;;;19.80;99.90;;;;;;5016152;28;20244;-62
2022/08/09 09:48:23;;;;;;;103.63;9.25;;;19.70;99.90;;;;;;4996497;28;20217;-62
2022/08/09 09:50:53;;;;;;;12.57;2.08;;;19.80;99.90;;;;;;5012361;28;20206;-62
2022/08/09 09:53:22;;;;;;;1.38;1.00;;;19.80;99.90;;;;;;5011137;28;20198;-62
2022/08/09 09:55:58;;;;;;;9.63;1.45;;;19.70;99.90;;;;;;5013802;28;20233;-63
2022/08/09 09:58:26;;;;;;;2.13;1.10;;;19.90;99.90;;;;;;5016933;28;20198;-62
2022/08/09 10:00:55;;;;;;;1.48;1.13;;;19.90;99.90;;;;;;5010300;28;20198;-62
2022/08/09 10:03:41;;;;;;;3.90;1.30;;;20.10;99.90;;;;;;4995059;28;20221;-62
2022/08/09 10:06:08;;;;;;;2.38;1.30;;;20.10;99.90;;;;;;5013562;28;20737;-62
2022/08/09 10:08:36;;;;;;;2.25;1.50;;;;;;;;;;5013920;28;20202;-62
2022/08/09 10:11:17;;;;;;;1.48;1.27;;;20.10;99.90;;;;;;5011021;28;20592;-62
2022/08/09 10:13:44;;;;;;;2.55;1.20;;;20.20;99.90;;;;;;5010692;28;20195;-62
2022/08/09 10:16:11;;;;;;;4.15;1.10;;;20.30;99.90;;;;;;5011661;28;20207;-63
2022/08/09 10:18:39;;;;;;;1.30;1.20;;;20.30;99.90;;;;;;4995031;28;20309;-62
2022/08/09 10:21:08;;;;;;;1.40;1.27;;;20.40;99.90;;;;;;5008796;28;20773;-62
2022/08/09 10:23:36;;;;;;;6.47;1.40;;;20.50;99.90;;;;;;5008251;28;20218;-63
2022/08/09 10:26:03;;;;;;;1.40;1.30;;;20.50;99.90;;;;;;5010554;28;20428;-63
2022/08/09 10:28:32;;;;;;;1.48;1.08;;;20.80;99.90;;;;;;5014303;28;20676;-63
2022/08/09 10:30:58;;;;;;;2.85;1.15;;;20.90;99.90;;;;;;5011798;28;20417;-63
2022/08/09 10:33:26;;;;;;;1.50;1.40;;;20.80;99.90;;;;;;4997063;28;20206;-63
2022/08/09 10:35:54;;;;;;;7.18;1.05;;;21.00;99.90;;;;;;5011786;28;20691;-63
2022/08/09 10:38:21;;;;;;;2.33;1.30;;;21.00;99.90;;;;;;5016776;28;20201;-63
2022/08/09 10:40:48;;;;;;;9.23;1.77;;;21.00;99.90;;;;;;5012481;28;20191;-64
2022/08/09 10:43:15;;;;;;;1.35;0.93;;;21.00;99.90;;;;;;5015769;28;20693;-63
2022/08/09 10:45:44;;;;;;;2.15;1.10;;;21.10;99.90;;;;;;5014586;28;20255;-63
2022/08/09 10:48:15;;;;;;;7.72;1.48;;;21.10;99.90;;;;;;5015647;28;20308;-63
2022/08/09 10:53:56;;;;;;;8.20;1.52;;;21.40;99.90;;;;;;5011250;28;20214;-64
2022/08/09 10:56:24;;;;;;;0.70;0.70;;;21.20;99.90;;;;;;5013432;28;20305;-62
2022/08/09 10:58:53;;;;;;;0.90;0.90;;;21.20;99.90;;;;;;5003112;28;20198;-64
2022/08/09 11:01:39;;;;;;;1.52;1.35;;;21.20;99.90;;;;;;5013675;28;20195;-63
2022/08/09 11:04:19;;;;;;;2.28;1.30;;;21.30;99.90;;;;;;4990101;28;20371;-63
2022/08/09 11:06:48;;;;;;;1.70;1.30;;;21.40;99.90;;;;;;5013402;28;20252;-63
2022/08/09 11:09:49;;;;;;;4.97;1.33;;;21.40;99.90;;;;;;5013854;28;20668;-63
2022/08/09 11:12:18;;;;;;;1.40;1.30;;;21.50;99.90;;;;;;5014414;28;20201;-63
2022/08/09 11:14:47;;;;;;;3.70;1.30;;;21.40;99.90;;;;;;5013203;28;20202;-62
2022/08/09 11:17:45;;;;;;;2.50;1.10;;;21.70;99.90;;;;;;5014728;28;20234;-63
2022/08/09 11:20:13;;;;;;;2.97;1.38;;;21.70;99.90;;;;;;4993079;28;20612;-63
2022/08/09 11:23:07;;;;;;;1.10;1.00;;;21.60;99.90;;;;;;5008378;28;20225;-64
2022/08/09 11:25:41;;;;;;;1.20;1.10;;;21.50;99.90;;;;;;4977402;28;20194;-64
2022/08/09 11:28:32;;;;;;;3.47;1.40;;;21.70;99.90;;;;;;5004821;28;20406;-62
2022/08/09 11:30:59;;;;;;;2.13;1.05;;;21.70;99.90;;;;;;5009546;28;20194;-64
2022/08/09 11:33:37;;;;;;;1.35;0.90;;;21.60;99.90;;;;;;5015708;28;20668;-63
2022/08/09 11:36:04;;;;;;;1.20;1.10;;;21.60;99.90;;;;;;4989935;28;20349;-64
2022/08/09 11:38:33;;;;;;;2.80;1.50;;;21.60;99.90;;;;;;5015260;28;20205;-63
2022/08/09 11:41:05;;;;;;;3.30;1.55;;;21.60;99.90;;;;;;5013589;28;20208;-64
2022/08/09 11:43:39;;;;;;;6.20;1.40;;;21.70;99.90;;;;;;5015322;28;20707;-64
2022/08/09 11:46:06;;;;;;;1.52;1.40;;;22.00;99.90;;;;;;5011196;28;20585;-63
2022/08/09 11:48:50;;;;;;;2.13;1.33;;;21.90;99.90;;;;;;5014625;28;20190;-63
2022/08/09 11:51:19;;;;;;;2.17;1.23;;;21.90;99.90;;;;;;4991645;28;20206;-63
2022/08/09 11:53:46;;;;;;;3.80;1.30;;;22.50;99.90;;;;;;5007336;28;20205;-61
2022/08/09 11:56:26;;;;;;;2.08;1.40;;;22.00;99.90;;;;;;5012180;28;20412;-63
2022/08/09 11:58:55;;;;;;;2.42;1.20;;;21.90;99.90;;;;;;5009244;28;20666;-63
2022/08/09 12:01:33;;;;;;;2.25;1.30;;;22.10;99.90;;;;;;5012787;28;20194;-63
2022/08/09 12:04:01;;;;;;;1.58;1.35;;;22.20;99.90;;;;;;5009250;28;20338;-63
2022/08/09 12:06:29;;;;;;;3.03;1.45;;;22.20;99.90;;;;;;5014899;28;20218;-63
2022/08/09 12:08:56;;;;;;;1.83;1.00;;;22.10;99.90;;;;;;4991170;28;20206;-64
2022/08/09 12:11:26;;;;;;;1.48;1.38;;;22.10;99.90;;;;;;5013843;28;20205;-63
2022/08/09 12:13:55;;;;;;;1.75;1.50;;;22.10;99.90;;;;;;5011038;28;20620;-63
2022/08/09 12:16:25;;;;;;;17.13;1.65;;;22.10;99.90;;;;;;5014540;28;20198;-63
2022/08/09 12:18:53;;;;;;;2.17;1.10;;;22.10;99.90;;;;;;5012038;28;20256;-63
2022/08/09 12:21:29;;;;;;;4.10;1.25;;;22.20;99.90;;;;;;5012603;28;20654;-63
2022/08/09 12:23:56;;;;;;;1.58;1.00;;;22.20;99.90;;;;;;4987952;28;20248;-63
2022/08/09 12:26:25;;;;;;;3.63;1.50;;;22.20;99.90;;;;;;5013610;28;20484;-63
2022/08/09 12:28:53;;;;;;;2.05;1.38;;;22.10;99.90;;;;;;5010116;28;20210;-62
2022/08/09 12:31:23;;;;;;;6.95;1.17;;;22.10;99.90;;;;;;5014917;28;20590;-63
2022/08/09 12:33:51;;;;;;;12.27;2.40;;;22.20;99.90;;;;;;5008898;28;20205;-63
2022/08/09 12:36:18;;;;;;;12.73;1.55;;;22.40;99.90;;;;;;5013994;28;20209;-63
2022/08/09 12:38:45;;;;;;;3.08;1.23;;;22.50;99.90;;;;;;4991625;28;20224;-63
2022/08/09 12:41:12;;;;;;;3.33;0.98;;;22.50;99.90;;;;;;5012487;28;20478;-63
2022/08/09 12:43:41;;;;;;;3.60;1.35;;;22.40;99.90;;;;;;5012659;28;20198;-63
2022/08/09 12:46:10;;;;;;;1.95;1.20;;;22.40;99.90;;;;;;5009125;28;20924;-63
2022/08/09 12:48:37;;;;;;;2.35;1.40;;;22.40;99.90;;;;;;5013452;28;20194;-63
2022/08/09 12:51:04;;;;;;;2.47;1.10;;;22.40;99.90;;;;;;5008955;28;20302;-63
2022/08/09 12:53:35;;;;;;;5.93;1.63;;;22.40;99.90;;;;;;5009236;28;20198;-63
2022/08/09 12:56:12;;;;;;;3.40;1.23;;;22.30;99.90;;;;;;4993318;28;20422;-63
2022/08/09 12:58:42;;;;;;;4.13;1.30;;;22.40;99.90;;;;;;5002852;28;20208;-64
2022/08/09 13:01:30;;;;;;;1.23;1.13;;;22.70;99.90;;;;;;5010704;28;20410;-63
2022/08/09 13:03:59;;;;;;;6.55;1.55;;;22.60;99.90;;;;;;5005937;28;20224;-63